Inicio Aviación Nacional Por banco de niebla suspenden operaciones en el AICM.

Por banco de niebla suspenden operaciones en el AICM.

2586

El Aeropuerto Internacional de la Ciudad de México (AICM) informó que debido a un banco de niebla permanecen suspendidos los aterrizajes en el aeropuerto desde de las 06:30 horas de este lunes.

A la presente METAR vigente: MMMX 301423Z 06003KT 1/8SM FG VV003 09/08 A3030 TEMPO 1/8SM FG VV002 RMK 8//// HZY TWR VSBY

Streaming desde el Aeropuerto Internacional de la Ciudad de México AICM:

Publicidad

A través de su cuenta de Twitter @AICM3 reportó:

En tanto, la Dirección de Monitoreo Atmosférico de la ciudad reportó que la calidad del aire en el valle de México es regular, debido a que la contaminación pasa los 50 puntos en el índice Metropolitano de la Calidad del Aire (Imeca).

Informó que han desviado 11 vuelos a diferentes aeropuertos.

A las 7:50 horas, el Aeropuerto capitalino informó, vía Twitter, que también fueron suspendidos los despegues:

Fuente: Noticieros Televisa

Comentarios

comentarios

Artículo anteriorBoeing 757 aterriza por primera vez en el Glaciar Unión de la Antártida.
Artículo siguienteVivaAerobus recibe directamente de fábrica dos nuevos Airbus A320.
La información más actual en lo que te apasiona y te interesa, la aviación. Estamos continuamente creciendo y mejorando para ofrecerte el mejor contenido de la aviación en México y el mundo.